TimeHST,TemperatureF,Dew PointF,Humidity,Sea Level PressureIn,VisibilityMPH,Wind Direction,Wind SpeedMPH,Gust SpeedMPH,PrecipitationIn,Events,Conditions,WindDirDegrees,DateUTC
12:48 AM,73.4,69.8,88,30.00,10.0,Calm,Calm,-,N/A,,Mostly Cloudy,0,2012-12-04 10:48:00
12:54 AM,73.0,70.0,90,30.02,10.0,Calm,Calm,-,N/A,,Mostly Cloudy,0,2012-12-04 10:54:00
1:17 AM,73.4,69.8,88,30.00,10.0,South,4.6,-,N/A,,Overcast,170,2012-12-04 11:17:00
1:54 AM,73.9,71.1,91,30.01,10.0,Calm,Calm,-,N/A,,Overcast,0,2012-12-04 11:54:00
2:29 AM,73.4,69.8,88,29.98,10.0,Calm,Calm,-,N/A,,Mostly Cloudy,0,2012-12-04 12:29:00
2:36 AM,73.4,69.8,88,29.98,10.0,Calm,Calm,-,N/A,,Mostly Cloudy,0,2012-12-04 12:36:00
2:52 AM,71.6,69.8,94,29.98,10.0,Calm,Calm,-,N/A,,Partly Cloudy,0,2012-12-04 12:52:00
2:54 AM,72.0,69.1,91,30.00,10.0,South,3.5,-,N/A,,Partly Cloudy,190,2012-12-04 12:54:00
3:54 AM,69.1,66.9,93,29.99,10.0,SE,3.5,-,N/A,,Clear,140,2012-12-04 13:54:00
4:54 AM,69.1,66.0,90,30.00,10.0,SE,3.5,-,N/A,,Clear,130,2012-12-04 14:54:00
5:54 AM,68.0,64.9,90,30.01,10.0,South,4.6,-,N/A,,Clear,170,2012-12-04 15:54:00
6:54 AM,66.0,64.0,93,30.03,10.0,Calm,Calm,-,N/A,,Clear,0,2012-12-04 16:54:00
7:54 AM,72.0,68.0,87,30.04,10.0,SSE,4.6,-,0.00,,Partly Cloudy,150,2012-12-04 17:54:00
8:54 AM,79.0,69.1,72,30.06,10.0,Calm,Calm,-,N/A,,Clear,0,2012-12-04 18:54:00
9:54 AM,80.1,69.1,69,30.06,10.0,North,4.6,-,0.00,,Clear,350,2012-12-04 19:54:00
10:54 AM,82.9,69.1,63,30.04,10.0,NNE,6.9,-,N/A,,Scattered Clouds,30,2012-12-04 20:54:00
11:54 AM,82.0,71.1,69,30.02,10.0,North,9.2,-,N/A,,Scattered Clouds,360,2012-12-04 21:54:00
12:54 PM,82.0,72.0,71,30.00,10.0,North,11.5,-,N/A,,Clear,350,2012-12-04 22:54:00
1:54 PM,81.0,72.0,74,29.99,10.0,North,11.5,-,N/A,,Scattered Clouds,360,2012-12-04 23:54:00
2:54 PM,82.9,71.1,67,29.99,10.0,NNE,12.7,-,N/A,,Scattered Clouds,30,2012-12-05 00:54:00
3:54 PM,82.0,71.1,69,29.99,10.0,NNE,8.1,-,N/A,,Scattered Clouds,30,2012-12-05 01:54:00
4:54 PM,80.1,70.0,71,30.00,10.0,North,4.6,-,N/A,,Partly Cloudy,360,2012-12-05 02:54:00
5:54 PM,79.0,70.0,74,30.01,10.0,NNE,4.6,-,N/A,,Scattered Clouds,30,2012-12-05 03:54:00
6:54 PM,78.1,69.1,74,30.01,10.0,Calm,Calm,-,N/A,,Scattered Clouds,0,2012-12-05 04:54:00
7:54 PM,75.9,71.1,85,30.03,10.0,ENE,5.8,-,N/A,,Partly Cloudy,60,2012-12-05 05:54:00
8:54 PM,75.0,70.0,84,30.03,10.0,SE,5.8,-,N/A,,Mostly Cloudy,130,2012-12-05 06:54:00
9:54 PM,75.0,70.0,84,30.03,10.0,Calm,Calm,-,N/A,,Mostly Cloudy,0,2012-12-05 07:54:00
10:54 PM,73.9,70.0,87,30.06,10.0,South,5.8,-,N/A,,Scattered Clouds,190,2012-12-05 08:54:00
11:54 PM,75.9,70.0,82,30.04,10.0,Calm,Calm,-,0.00,,Scattered Clouds,0,2012-12-05 09:54:00